sensor_id;sensor_type;location;lat;lon;timestamp;P1;P2;P0
36453;PMS5003;22478;51.740;-1.314;2023-06-26T00:00:00;5;5;
36453;PMS5003;22478;51.740;-1.314;2023-06-26T00:02:27;6;4;
36453;PMS5003;22478;51.740;-1.314;2023-06-26T00:04:54;4;4;
36453;PMS5003;22478;51.740;-1.314;2023-06-26T00:07:21;4;3;
36453;PMS5003;22478;51.740;-1.314;2023-06-26T00:09:48;2;2;
36453;PMS5003;22478;51.740;-1.314;2023-06-26T00:12:15;6;4;
36453;PMS5003;22478;51.740;-1.314;2023-06-26T00:14:42;3;3;
36453;PMS5003;22478;51.740;-1.314;2023-06-26T00:17:09;3;3;
36453;PMS5003;22478;51.740;-1.314;2023-06-26T00:19:36;3;2;
36453;PMS5003;22478;51.740;-1.314;2023-06-26T00:22:03;5;2;
36453;PMS5003;22478;51.740;-1.314;2023-06-26T00:24:31;4;4;
36453;PMS5003;22478;51.740;-1.314;2023-06-26T00:26:58;3;2;
36453;PMS5003;22478;51.740;-1.314;2023-06-26T00:29:25;5;3;
36453;PMS5003;22478;51.740;-1.314;2023-06-26T00:31:52;4;4;
36453;PMS5003;22478;51.740;-1.314;2023-06-26T00:34:19;3;2;
36453;PMS5003;22478;51.740;-1.314;2023-06-26T00:36:46;7;4;
36453;PMS5003;22478;51.740;-1.314;2023-06-26T00:39:13;5;3;
36453;PMS5003;22478;51.740;-1.314;2023-06-26T00:41:40;4;4;
36453;PMS5003;22478;51.740;-1.314;2023-06-26T00:44:07;5;5;
36453;PMS5003;22478;51.740;-1.314;2023-06-26T00:46:34;8;4;
36453;PMS5003;22478;51.740;-1.314;2023-06-26T00:49:02;6;4;
36453;PMS5003;22478;51.740;-1.314;2023-06-26T00:51:30;4;4;
36453;PMS5003;22478;51.740;-1.314;2023-06-26T00:53:58;2;2;
36453;PMS5003;22478;51.740;-1.314;2023-06-26T00:56:26;5;5;
36453;PMS5003;22478;51.740;-1.314;2023-06-26T00:58:54;4;4;
36453;PMS5003;22478;51.740;-1.314;2023-06-26T01:01:21;7;5;
36453;PMS5003;22478;51.740;-1.314;2023-06-26T01:03:48;7;5;
36453;PMS5003;22478;51.740;-1.314;2023-06-26T01:06:16;7;5;
36453;PMS5003;22478;51.740;-1.314;2023-06-26T01:08:44;8;5;
36453;PMS5003;22478;51.740;-1.314;2023-06-26T01:11:13;4;4;
36453;PMS5003;22478;51.740;-1.314;2023-06-26T01:13:41;9;6;
36453;PMS5003;22478;51.740;-1.314;2023-06-26T01:16:09;2;2;
36453;PMS5003;22478;51.740;-1.314;2023-06-26T01:18:37;4;4;
36453;PMS5003;22478;51.740;-1.314;2023-06-26T01:21:07;8;7;
36453;PMS5003;22478;51.740;-1.314;2023-06-26T01:23:38;6;3;
36453;PMS5003;22478;51.740;-1.314;2023-06-26T01:26:15;7;7;
36453;PMS5003;22478;51.740;-1.314;2023-06-26T01:28:45;10;9;
36453;PMS5003;22478;51.740;-1.314;2023-06-26T01:31:13;12;12;
36453;PMS5003;22478;51.740;-1.314;2023-06-26T01:33:41;12;9;
36453;PMS5003;22478;51.740;-1.314;2023-06-26T01:36:09;12;12;
36453;PMS5003;22478;51.740;-1.314;2023-06-26T01:38:37;27;27;
36453;PMS5003;22478;51.740;-1.314;2023-06-26T01:41:05;9;9;
36453;PMS5003;22478;51.740;-1.314;2023-06-26T01:43:35;11;10;
36453;PMS5003;22478;51.740;-1.314;2023-06-26T01:46:11;6;4;
36453;PMS5003;22478;51.740;-1.314;2023-06-26T01:48:46;6;6;
36453;PMS5003;22478;51.740;-1.314;2023-06-26T01:51:21;11;11;
36453;PMS5003;22478;51.740;-1.314;2023-06-26T01:53:54;9;9;
36453;PMS5003;22478;51.740;-1.314;2023-06-26T01:56:24;7;7;
36453;PMS5003;22478;51.740;-1.314;2023-06-26T01:58:54;13;11;
36453;PMS5003;22478;51.740;-1.314;2023-06-26T02:01:23;7;6;
36453;PMS5003;22478;51.740;-1.314;2023-06-26T02:03:50;7;6;
36453;PMS5003;22478;51.740;-1.314;2023-06-26T02:06:17;8;7;
36453;PMS5003;22478;51.740;-1.314;2023-06-26T02:08:44;6;6;
36453;PMS5003;22478;51.740;-1.314;2023-06-26T02:11:11;5;5;
36453;PMS5003;22478;51.740;-1.314;2023-06-26T02:13:39;6;6;
36453;PMS5003;22478;51.740;-1.314;2023-06-26T02:16:06;5;5;
36453;PMS5003;22478;51.740;-1.314;2023-06-26T02:18:33;5;5;
36453;PMS5003;22478;51.740;-1.314;2023-06-26T02:21:02;4;4;
36453;PMS5003;22478;51.740;-1.314;2023-06-26T02:23:29;4;4;
36453;PMS5003;22478;51.740;-1.314;2023-06-26T02:25:57;8;8;
36453;PMS5003;22478;51.740;-1.314;2023-06-26T02:28:24;4;3;
36453;PMS5003;22478;51.740;-1.314;2023-06-26T02:30:51;12;7;
36453;PMS5003;22478;51.740;-1.314;2023-06-26T02:33:18;6;4;
36453;PMS5003;22478;51.740;-1.314;2023-06-26T02:35:45;5;3;
36453;PMS5003;22478;51.740;-1.314;2023-06-26T02:38:12;5;5;
36453;PMS5003;22478;51.740;-1.314;2023-06-26T02:40:39;5;3;
36453;PMS5003;22478;51.740;-1.314;2023-06-26T02:43:06;5;5;
36453;PMS5003;22478;51.740;-1.314;2023-06-26T02:45:33;5;3;
36453;PMS5003;22478;51.740;-1.314;2023-06-26T02:48:00;5;4;
36453;PMS5003;22478;51.740;-1.314;2023-06-26T02:50:27;7;4;
36453;PMS5003;22478;51.740;-1.314;2023-06-26T02:52:54;7;7;
36453;PMS5003;22478;51.740;-1.314;2023-06-26T02:55:21;4;3;
36453;PMS5003;22478;51.740;-1.314;2023-06-26T02:57:49;7;5;
36453;PMS5003;22478;51.740;-1.314;2023-06-26T03:00:16;6;4;
36453;PMS5003;22478;51.740;-1.314;2023-06-26T03:02:44;6;4;
36453;PMS5003;22478;51.740;-1.314;2023-06-26T03:05:11;5;5;
36453;PMS5003;22478;51.740;-1.314;2023-06-26T03:07:38;6;5;
36453;PMS5003;22478;51.740;-1.314;2023-06-26T03:10:05;7;3;
36453;PMS5003;22478;51.740;-1.314;2023-06-26T03:12:33;4;4;
36453;PMS5003;22478;51.740;-1.314;2023-06-26T03:15:01;5;4;
36453;PMS5003;22478;51.740;-1.314;2023-06-26T03:17:28;6;6;
36453;PMS5003;22478;51.740;-1.314;2023-06-26T03:19:55;6;6;
36453;PMS5003;22478;51.740;-1.314;2023-06-26T03:22:21;6;6;
36453;PMS5003;22478;51.740;-1.314;2023-06-26T03:24:48;6;6;
36453;PMS5003;22478;51.740;-1.314;2023-06-26T03:27:15;12;10;
36453;PMS5003;22478;51.740;-1.314;2023-06-26T03:29:42;7;6;
36453;PMS5003;22478;51.740;-1.314;2023-06-26T03:32:10;5;5;
36453;PMS5003;22478;51.740;-1.314;2023-06-26T03:34:37;4;4;
36453;PMS5003;22478;51.740;-1.314;2023-06-26T03:37:05;7;7;
36453;PMS5003;22478;51.740;-1.314;2023-06-26T03:39:32;5;5;
36453;PMS5003;22478;51.740;-1.314;2023-06-26T03:42:00;6;5;
36453;PMS5003;22478;51.740;-1.314;2023-06-26T03:44:27;7;6;
36453;PMS5003;22478;51.740;-1.314;2023-06-26T03:46:54;7;4;
36453;PMS5003;22478;51.740;-1.314;2023-06-26T03:49:21;6;4;
36453;PMS5003;22478;51.740;-1.314;2023-06-26T03:51:48;6;5;
36453;PMS5003;22478;51.740;-1.314;2023-06-26T03:54:16;7;7;
36453;PMS5003;22478;51.740;-1.314;2023-06-26T03:56:43;6;6;
36453;PMS5003;22478;51.740;-1.314;2023-06-26T03:59:10;9;8;
36453;PMS5003;22478;51.740;-1.314;2023-06-26T04:01:37;14;14;
36453;PMS5003;22478;51.740;-1.314;2023-06-26T04:04:04;10;10;
36453;PMS5003;22478;51.740;-1.314;2023-06-26T04:06:32;19;16;
36453;PMS5003;22478;51.740;-1.314;2023-06-26T04:09:00;15;14;
36453;PMS5003;22478;51.740;-1.314;2023-06-26T04:11:26;11;11;
36453;PMS5003;22478;51.740;-1.314;2023-06-26T04:13:54;23;21;
36453;PMS5003;22478;51.740;-1.314;2023-06-26T04:16:21;11;10;
36453;PMS5003;22478;51.740;-1.314;2023-06-26T04:18:49;16;14;
36453;PMS5003;22478;51.740;-1.314;2023-06-26T04:21:16;20;17;
36453;PMS5003;22478;51.740;-1.314;2023-06-26T04:23:43;9;9;
36453;PMS5003;22478;51.740;-1.314;2023-06-26T04:26:10;6;6;
36453;PMS5003;22478;51.740;-1.314;2023-06-26T04:28:37;6;6;
36453;PMS5003;22478;51.740;-1.314;2023-06-26T04:31:04;14;12;
36453;PMS5003;22478;51.740;-1.314;2023-06-26T04:33:31;12;12;
36453;PMS5003;22478;51.740;-1.314;2023-06-26T04:35:58;13;11;
36453;PMS5003;22478;51.740;-1.314;2023-06-26T04:38:25;12;10;
36453;PMS5003;22478;51.740;-1.314;2023-06-26T04:40:53;13;12;
36453;PMS5003;22478;51.740;-1.314;2023-06-26T04:43:20;9;8;
36453;PMS5003;22478;51.740;-1.314;2023-06-26T04:45:47;11;8;
36453;PMS5003;22478;51.740;-1.314;2023-06-26T04:48:14;8;6;
36453;PMS5003;22478;51.740;-1.314;2023-06-26T04:50:42;10;10;
36453;PMS5003;22478;51.740;-1.314;2023-06-26T04:53:09;14;12;
36453;PMS5003;22478;51.740;-1.314;2023-06-26T04:55:36;9;8;
36453;PMS5003;22478;51.740;-1.314;2023-06-26T04:58:03;9;9;
36453;PMS5003;22478;51.740;-1.314;2023-06-26T05:00:30;9;9;
36453;PMS5003;22478;51.740;-1.314;2023-06-26T05:02:57;7;7;
36453;PMS5003;22478;51.740;-1.314;2023-06-26T05:05:24;11;9;
36453;PMS5003;22478;51.740;-1.314;2023-06-26T05:07:57;8;8;
36453;PMS5003;22478;51.740;-1.314;2023-06-26T05:10:24;9;9;
36453;PMS5003;22478;51.740;-1.314;2023-06-26T05:12:51;9;7;
36453;PMS5003;22478;51.740;-1.314;2023-06-26T05:15:18;6;4;
36453;PMS5003;22478;51.740;-1.314;2023-06-26T05:17:45;4;4;
36453;PMS5003;22478;51.740;-1.314;2023-06-26T05:20:12;4;4;
36453;PMS5003;22478;51.740;-1.314;2023-06-26T05:22:39;4;4;
36453;PMS5003;22478;51.740;-1.314;2023-06-26T05:25:08;3;3;
36453;PMS5003;22478;51.740;-1.314;2023-06-26T05:27:36;6;6;
36453;PMS5003;22478;51.740;-1.314;2023-06-26T05:30:04;6;4;
36453;PMS5003;22478;51.740;-1.314;2023-06-26T05:32:34;5;4;
36453;PMS5003;22478;51.740;-1.314;2023-06-26T05:35:02;5;4;
36453;PMS5003;22478;51.740;-1.314;2023-06-26T05:37:30;6;4;
36453;PMS5003;22478;51.740;-1.314;2023-06-26T05:39:58;3;3;
36453;PMS5003;22478;51.740;-1.314;2023-06-26T05:42:26;5;4;
36453;PMS5003;22478;51.740;-1.314;2023-06-26T05:44:53;4;4;
36453;PMS5003;22478;51.740;-1.314;2023-06-26T05:47:20;2;2;
36453;PMS5003;22478;51.740;-1.314;2023-06-26T05:49:48;5;4;
36453;PMS5003;22478;51.740;-1.314;2023-06-26T05:52:15;4;4;
36453;PMS5003;22478;51.740;-1.314;2023-06-26T05:54:43;3;2;
36453;PMS5003;22478;51.740;-1.314;2023-06-26T05:57:10;4;4;
36453;PMS5003;22478;51.740;-1.314;2023-06-26T05:59:40;4;4;
36453;PMS5003;22478;51.740;-1.314;2023-06-26T06:02:09;5;4;
36453;PMS5003;22478;51.740;-1.314;2023-06-26T06:04:37;4;2;
36453;PMS5003;22478;51.740;-1.314;2023-06-26T06:07:04;6;4;
36453;PMS5003;22478;51.740;-1.314;2023-06-26T06:09:31;2;2;
36453;PMS5003;22478;51.740;-1.314;2023-06-26T06:11:58;2;2;
36453;PMS5003;22478;51.740;-1.314;2023-06-26T06:14:26;4;3;
36453;PMS5003;22478;51.740;-1.314;2023-06-26T06:16:53;3;3;
36453;PMS5003;22478;51.740;-1.314;2023-06-26T06:19:21;7;7;
36453;PMS5003;22478;51.740;-1.314;2023-06-26T06:21:48;2;2;
36453;PMS5003;22478;51.740;-1.314;2023-06-26T06:24:15;4;4;
36453;PMS5003;22478;51.740;-1.314;2023-06-26T06:26:42;4;3;
36453;PMS5003;22478;51.740;-1.314;2023-06-26T06:29:10;4;3;
36453;PMS5003;22478;51.740;-1.314;2023-06-26T06:31:37;4;3;
36453;PMS5003;22478;51.740;-1.314;2023-06-26T06:34:04;4;4;
36453;PMS5003;22478;51.740;-1.314;2023-06-26T06:36:31;6;4;
36453;PMS5003;22478;51.740;-1.314;2023-06-26T06:38:58;6;5;
36453;PMS5003;22478;51.740;-1.314;2023-06-26T06:41:25;7;5;
36453;PMS5003;22478;51.740;-1.314;2023-06-26T06:43:52;3;2;
36453;PMS5003;22478;51.740;-1.314;2023-06-26T06:46:19;4;3;
36453;PMS5003;22478;51.740;-1.314;2023-06-26T06:48:46;3;3;
36453;PMS5003;22478;51.740;-1.314;2023-06-26T06:51:13;3;3;
36453;PMS5003;22478;51.740;-1.314;2023-06-26T06:53:40;2;2;
36453;PMS5003;22478;51.740;-1.314;2023-06-26T06:56:07;2;1;
36453;PMS5003;22478;51.740;-1.314;2023-06-26T06:58:34;10;4;
36453;PMS5003;22478;51.740;-1.314;2023-06-26T07:01:01;3;3;
36453;PMS5003;22478;51.740;-1.314;2023-06-26T07:03:29;4;4;
36453;PMS5003;22478;51.740;-1.314;2023-06-26T07:05:56;3;3;
36453;PMS5003;22478;51.740;-1.314;2023-06-26T07:08:23;3;3;
36453;PMS5003;22478;51.740;-1.314;2023-06-26T07:10:50;3;3;
36453;PMS5003;22478;51.740;-1.314;2023-06-26T07:13:17;5;3;
36453;PMS5003;22478;51.740;-1.314;2023-06-26T07:15:44;4;2;
36453;PMS5003;22478;51.740;-1.314;2023-06-26T07:18:12;4;3;
36453;PMS5003;22478;51.740;-1.314;2023-06-26T07:20:39;3;3;
36453;PMS5003;22478;51.740;-1.314;2023-06-26T07:23:06;3;3;
36453;PMS5003;22478;51.740;-1.314;2023-06-26T07:25:33;3;3;
36453;PMS5003;22478;51.740;-1.314;2023-06-26T07:28:01;1;1;
36453;PMS5003;22478;51.740;-1.314;2023-06-26T07:30:27;2;2;
36453;PMS5003;22478;51.740;-1.314;2023-06-26T07:32:55;4;4;
36453;PMS5003;22478;51.740;-1.314;2023-06-26T07:35:22;4;2;
36453;PMS5003;22478;51.740;-1.314;2023-06-26T07:37:49;2;2;
36453;PMS5003;22478;51.740;-1.314;2023-06-26T07:40:16;2;2;
36453;PMS5003;22478;51.740;-1.314;2023-06-26T07:42:43;1;1;
36453;PMS5003;22478;51.740;-1.314;2023-06-26T07:45:10;3;1;
36453;PMS5003;22478;51.740;-1.314;2023-06-26T07:47:37;2;2;
36453;PMS5003;22478;51.740;-1.314;2023-06-26T07:50:05;4;3;
36453;PMS5003;22478;51.740;-1.314;2023-06-26T07:52:33;4;3;
36453;PMS5003;22478;51.740;-1.314;2023-06-26T07:55:00;3;2;
36453;PMS5003;22478;51.740;-1.314;2023-06-26T07:57:27;2;2;
36453;PMS5003;22478;51.740;-1.314;2023-06-26T07:59:55;2;2;
36453;PMS5003;22478;51.740;-1.314;2023-06-26T08:02:22;0;0;
36453;PMS5003;22478;51.740;-1.314;2023-06-26T08:04:49;2;2;
36453;PMS5003;22478;51.740;-1.314;2023-06-26T08:07:17;1;1;
36453;PMS5003;22478;51.740;-1.314;2023-06-26T08:09:44;2;2;
36453;PMS5003;22478;51.740;-1.314;2023-06-26T08:12:11;1;1;
36453;PMS5003;22478;51.740;-1.314;2023-06-26T08:14:38;2;2;
36453;PMS5003;22478;51.740;-1.314;2023-06-26T08:17:05;1;1;
36453;PMS5003;22478;51.740;-1.314;2023-06-26T08:19:31;3;3;
36453;PMS5003;22478;51.740;-1.314;2023-06-26T08:21:58;1;1;
36453;PMS5003;22478;51.740;-1.314;2023-06-26T08:24:25;2;2;
36453;PMS5003;22478;51.740;-1.314;2023-06-26T08:26:52;4;3;
36453;PMS5003;22478;51.740;-1.314;2023-06-26T08:29:19;3;3;
36453;PMS5003;22478;51.740;-1.314;2023-06-26T08:31:46;1;0;
36453;PMS5003;22478;51.740;-1.314;2023-06-26T08:34:14;3;3;
36453;PMS5003;22478;51.740;-1.314;2023-06-26T08:36:41;1;0;
36453;PMS5003;22478;51.740;-1.314;2023-06-26T08:39:08;3;1;
36453;PMS5003;22478;51.740;-1.314;2023-06-26T08:41:34;3;3;
36453;PMS5003;22478;51.740;-1.314;2023-06-26T08:44:02;2;1;
36453;PMS5003;22478;51.740;-1.314;2023-06-26T08:46:31;1;1;
36453;PMS5003;22478;51.740;-1.314;2023-06-26T08:49:00;1;1;
36453;PMS5003;22478;51.740;-1.314;2023-06-26T08:51:30;1;1;
36453;PMS5003;22478;51.740;-1.314;2023-06-26T08:54:03;6;2;
36453;PMS5003;22478;51.740;-1.314;2023-06-26T08:56:36;3;2;
36453;PMS5003;22478;51.740;-1.314;2023-06-26T08:59:06;1;1;
36453;PMS5003;22478;51.740;-1.314;2023-06-26T09:01:36;1;0;
36453;PMS5003;22478;51.740;-1.314;2023-06-26T09:04:04;2;2;
36453;PMS5003;22478;51.740;-1.314;2023-06-26T09:06:31;2;2;
36453;PMS5003;22478;51.740;-1.314;2023-06-26T09:08:58;3;3;
36453;PMS5003;22478;51.740;-1.314;2023-06-26T09:11:25;2;2;
36453;PMS5003;22478;51.740;-1.314;2023-06-26T09:13:52;2;2;
36453;PMS5003;22478;51.740;-1.314;2023-06-26T09:16:23;1;1;
36453;PMS5003;22478;51.740;-1.314;2023-06-26T09:18:51;2;2;
36453;PMS5003;22478;51.740;-1.314;2023-06-26T09:21:19;1;1;
36453;PMS5003;22478;51.740;-1.314;2023-06-26T09:23:46;3;1;
36453;PMS5003;22478;51.740;-1.314;2023-06-26T09:26:14;0;0;
36453;PMS5003;22478;51.740;-1.314;2023-06-26T09:28:42;2;2;
36453;PMS5003;22478;51.740;-1.314;2023-06-26T09:31:09;1;1;
36453;PMS5003;22478;51.740;-1.314;2023-06-26T09:33:36;1;1;
36453;PMS5003;22478;51.740;-1.314;2023-06-26T09:36:05;2;2;
36453;PMS5003;22478;51.740;-1.314;2023-06-26T09:38:33;1;1;
36453;PMS5003;22478;51.740;-1.314;2023-06-26T09:41:01;0;0;
36453;PMS5003;22478;51.740;-1.314;2023-06-26T09:43:29;0;0;
36453;PMS5003;22478;51.740;-1.314;2023-06-26T09:45:56;2;2;
36453;PMS5003;22478;51.740;-1.314;2023-06-26T09:48:22;1;1;
36453;PMS5003;22478;51.740;-1.314;2023-06-26T09:50:49;2;2;
36453;PMS5003;22478;51.740;-1.314;2023-06-26T09:53:17;3;3;
36453;PMS5003;22478;51.740;-1.314;2023-06-26T09:55:46;1;1;
36453;PMS5003;22478;51.740;-1.314;2023-06-26T09:58:13;1;1;
36453;PMS5003;22478;51.740;-1.314;2023-06-26T10:00:41;4;4;
36453;PMS5003;22478;51.740;-1.314;2023-06-26T10:03:09;2;2;
36453;PMS5003;22478;51.740;-1.314;2023-06-26T10:05:38;1;1;
36453;PMS5003;22478;51.740;-1.314;2023-06-26T10:08:05;3;1;
36453;PMS5003;22478;51.740;-1.314;2023-06-26T10:10:34;2;2;
36453;PMS5003;22478;51.740;-1.314;2023-06-26T10:13:05;1;1;
36453;PMS5003;22478;51.740;-1.314;2023-06-26T10:15:38;3;2;
36453;PMS5003;22478;51.740;-1.314;2023-06-26T10:18:08;2;2;
36453;PMS5003;22478;51.740;-1.314;2023-06-26T10:20:36;2;2;
36453;PMS5003;22478;51.740;-1.314;2023-06-26T10:23:04;3;3;
36453;PMS5003;22478;51.740;-1.314;2023-06-26T10:25:34;1;1;
36453;PMS5003;22478;51.740;-1.314;2023-06-26T10:28:06;1;1;
36453;PMS5003;22478;51.740;-1.314;2023-06-26T10:30:35;1;1;
36453;PMS5003;22478;51.740;-1.314;2023-06-26T10:33:04;1;1;
36453;PMS5003;22478;51.740;-1.314;2023-06-26T10:35:34;1;1;
36453;PMS5003;22478;51.740;-1.314;2023-06-26T10:38:08;3;3;
36453;PMS5003;22478;51.740;-1.314;2023-06-26T10:40:43;0;0;
36453;PMS5003;22478;51.740;-1.314;2023-06-26T10:43:12;2;2;
36453;PMS5003;22478;51.740;-1.314;2023-06-26T10:45:43;2;2;
36453;PMS5003;22478;51.740;-1.314;2023-06-26T10:48:12;4;2;
36453;PMS5003;22478;51.740;-1.314;2023-06-26T10:50:41;4;2;
36453;PMS5003;22478;51.740;-1.314;2023-06-26T10:53:09;3;2;
36453;PMS5003;22478;51.740;-1.314;2023-06-26T10:55:37;1;0;
36453;PMS5003;22478;51.740;-1.314;2023-06-26T10:58:40;2;2;
36453;PMS5003;22478;51.740;-1.314;2023-06-26T11:01:24;3;2;
36453;PMS5003;22478;51.740;-1.314;2023-06-26T11:04:07;3;3;
36453;PMS5003;22478;51.740;-1.314;2023-06-26T11:06:36;2;2;
36453;PMS5003;22478;51.740;-1.314;2023-06-26T11:09:06;1;1;
36453;PMS5003;22478;51.740;-1.314;2023-06-26T11:12:07;1;1;
36453;PMS5003;22478;51.740;-1.314;2023-06-26T11:14:35;1;1;
36453;PMS5003;22478;51.740;-1.314;2023-06-26T11:17:03;1;1;
36453;PMS5003;22478;51.740;-1.314;2023-06-26T11:19:30;1;1;
36453;PMS5003;22478;51.740;-1.314;2023-06-26T11:21:58;2;2;
36453;PMS5003;22478;51.740;-1.314;2023-06-26T11:24:28;1;1;
36453;PMS5003;22478;51.740;-1.314;2023-06-26T11:26:59;2;2;
36453;PMS5003;22478;51.740;-1.314;2023-06-26T11:29:28;2;2;
36453;PMS5003;22478;51.740;-1.314;2023-06-26T11:32:00;1;1;
36453;PMS5003;22478;51.740;-1.314;2023-06-26T11:34:30;2;2;
36453;PMS5003;22478;51.740;-1.314;2023-06-26T11:36:57;2;2;
36453;PMS5003;22478;51.740;-1.314;2023-06-26T11:39:24;2;1;
36453;PMS5003;22478;51.740;-1.314;2023-06-26T11:41:51;1;1;
36453;PMS5003;22478;51.740;-1.314;2023-06-26T11:44:19;2;2;
36453;PMS5003;22478;51.740;-1.314;2023-06-26T11:46:51;1;1;
36453;PMS5003;22478;51.740;-1.314;2023-06-26T11:49:18;1;1;
36453;PMS5003;22478;51.740;-1.314;2023-06-26T11:51:47;0;0;
36453;PMS5003;22478;51.740;-1.314;2023-06-26T11:54:14;4;3;
36453;PMS5003;22478;51.740;-1.314;2023-06-26T11:56:41;3;3;
36453;PMS5003;22478;51.740;-1.314;2023-06-26T11:59:11;3;3;
36453;PMS5003;22478;51.740;-1.314;2023-06-26T12:01:39;2;2;
36453;PMS5003;22478;51.740;-1.314;2023-06-26T12:04:09;2;2;
36453;PMS5003;22478;51.740;-1.314;2023-06-26T12:06:38;1;1;
36453;PMS5003;22478;51.740;-1.314;2023-06-26T12:09:07;1;1;
36453;PMS5003;22478;51.740;-1.314;2023-06-26T12:11:37;0;0;
36453;PMS5003;22478;51.740;-1.314;2023-06-26T12:14:05;2;2;
36453;PMS5003;22478;51.740;-1.314;2023-06-26T12:16:34;2;2;
36453;PMS5003;22478;51.740;-1.314;2023-06-26T12:19:02;1;1;
36453;PMS5003;22478;51.740;-1.314;2023-06-26T12:21:44;1;1;
36453;PMS5003;22478;51.740;-1.314;2023-06-26T12:24:13;2;2;
36453;PMS5003;22478;51.740;-1.314;2023-06-26T12:26:42;2;0;
36453;PMS5003;22478;51.740;-1.314;2023-06-26T12:29:10;1;1;
36453;PMS5003;22478;51.740;-1.314;2023-06-26T12:31:39;2;2;
36453;PMS5003;22478;51.740;-1.314;2023-06-26T12:34:09;2;2;
36453;PMS5003;22478;51.740;-1.314;2023-06-26T12:36:40;1;1;
36453;PMS5003;22478;51.740;-1.314;2023-06-26T12:39:09;4;2;
36453;PMS5003;22478;51.740;-1.314;2023-06-26T12:41:43;1;1;
36453;PMS5003;22478;51.740;-1.314;2023-06-26T12:44:16;1;1;
36453;PMS5003;22478;51.740;-1.314;2023-06-26T12:46:46;3;1;
36453;PMS5003;22478;51.740;-1.314;2023-06-26T12:49:14;1;1;
36453;PMS5003;22478;51.740;-1.314;2023-06-26T12:51:42;2;2;
36453;PMS5003;22478;51.740;-1.314;2023-06-26T12:54:08;1;1;
36453;PMS5003;22478;51.740;-1.314;2023-06-26T12:56:35;2;2;
36453;PMS5003;22478;51.740;-1.314;2023-06-26T12:59:02;2;1;
36453;PMS5003;22478;51.740;-1.314;2023-06-26T13:01:30;0;0;
36453;PMS5003;22478;51.740;-1.314;2023-06-26T13:03:57;1;1;
36453;PMS5003;22478;51.740;-1.314;2023-06-26T13:06:23;1;1;
36453;PMS5003;22478;51.740;-1.314;2023-06-26T13:08:50;2;1;
36453;PMS5003;22478;51.740;-1.314;2023-06-26T13:11:17;1;1;
36453;PMS5003;22478;51.740;-1.314;2023-06-26T13:13:45;3;3;
36453;PMS5003;22478;51.740;-1.314;2023-06-26T13:16:12;0;0;
36453;PMS5003;22478;51.740;-1.314;2023-06-26T13:18:39;3;1;
36453;PMS5003;22478;51.740;-1.314;2023-06-26T13:21:05;2;0;
36453;PMS5003;22478;51.740;-1.314;2023-06-26T13:23:32;3;1;
36453;PMS5003;22478;51.740;-1.314;2023-06-26T13:26:00;1;1;
36453;PMS5003;22478;51.740;-1.314;2023-06-26T13:28:27;1;1;
36453;PMS5003;22478;51.740;-1.314;2023-06-26T13:30:54;2;1;
36453;PMS5003;22478;51.740;-1.314;2023-06-26T13:33:21;3;1;
36453;PMS5003;22478;51.740;-1.314;2023-06-26T13:35:47;2;2;
36453;PMS5003;22478;51.740;-1.314;2023-06-26T13:38:14;2;2;
36453;PMS5003;22478;51.740;-1.314;2023-06-26T13:40:41;3;2;
36453;PMS5003;22478;51.740;-1.314;2023-06-26T13:43:08;1;1;
36453;PMS5003;22478;51.740;-1.314;2023-06-26T13:45:36;3;3;
36453;PMS5003;22478;51.740;-1.314;2023-06-26T13:48:03;3;1;
36453;PMS5003;22478;51.740;-1.314;2023-06-26T13:50:30;1;1;
36453;PMS5003;22478;51.740;-1.314;2023-06-26T13:52:57;2;2;
36453;PMS5003;22478;51.740;-1.314;2023-06-26T13:55:24;3;3;
36453;PMS5003;22478;51.740;-1.314;2023-06-26T13:57:51;2;2;
36453;PMS5003;22478;51.740;-1.314;2023-06-26T14:00:19;1;1;
36453;PMS5003;22478;51.740;-1.314;2023-06-26T14:02:47;2;2;
36453;PMS5003;22478;51.740;-1.314;2023-06-26T14:05:14;1;1;
36453;PMS5003;22478;51.740;-1.314;2023-06-26T14:07:41;4;3;
36453;PMS5003;22478;51.740;-1.314;2023-06-26T14:10:08;1;1;
36453;PMS5003;22478;51.740;-1.314;2023-06-26T14:12:36;2;2;
36453;PMS5003;22478;51.740;-1.314;2023-06-26T14:15:04;1;1;
36453;PMS5003;22478;51.740;-1.314;2023-06-26T14:17:32;2;2;
36453;PMS5003;22478;51.740;-1.314;2023-06-26T14:19:59;2;2;
36453;PMS5003;22478;51.740;-1.314;2023-06-26T14:22:26;2;2;
36453;PMS5003;22478;51.740;-1.314;2023-06-26T14:24:53;1;1;
36453;PMS5003;22478;51.740;-1.314;2023-06-26T14:27:19;3;2;
36453;PMS5003;22478;51.740;-1.314;2023-06-26T14:29:46;4;3;
36453;PMS5003;22478;51.740;-1.314;2023-06-26T14:32:13;2;2;
36453;PMS5003;22478;51.740;-1.314;2023-06-26T14:34:40;4;2;
36453;PMS5003;22478;51.740;-1.314;2023-06-26T14:37:07;1;1;
36453;PMS5003;22478;51.740;-1.314;2023-06-26T14:39:34;3;3;
36453;PMS5003;22478;51.740;-1.314;2023-06-26T14:42:02;3;1;
36453;PMS5003;22478;51.740;-1.314;2023-06-26T14:44:29;1;1;
36453;PMS5003;22478;51.740;-1.314;2023-06-26T14:46:56;2;2;
36453;PMS5003;22478;51.740;-1.314;2023-06-26T14:49:23;3;2;
36453;PMS5003;22478;51.740;-1.314;2023-06-26T14:51:50;4;2;
36453;PMS5003;22478;51.740;-1.314;2023-06-26T14:54:17;3;3;
36453;PMS5003;22478;51.740;-1.314;2023-06-26T14:56:44;3;3;
36453;PMS5003;22478;51.740;-1.314;2023-06-26T14:59:11;3;3;
36453;PMS5003;22478;51.740;-1.314;2023-06-26T15:01:38;3;2;
36453;PMS5003;22478;51.740;-1.314;2023-06-26T15:04:06;2;2;
36453;PMS5003;22478;51.740;-1.314;2023-06-26T15:06:34;3;2;
36453;PMS5003;22478;51.740;-1.314;2023-06-26T15:09:01;0;0;
36453;PMS5003;22478;51.740;-1.314;2023-06-26T15:11:29;3;2;
36453;PMS5003;22478;51.740;-1.314;2023-06-26T15:13:57;1;1;
36453;PMS5003;22478;51.740;-1.314;2023-06-26T15:16:24;2;2;
36453;PMS5003;22478;51.740;-1.314;2023-06-26T15:18:51;3;3;
36453;PMS5003;22478;51.740;-1.314;2023-06-26T15:21:18;3;2;
36453;PMS5003;22478;51.740;-1.314;2023-06-26T15:23:45;4;2;
36453;PMS5003;22478;51.740;-1.314;2023-06-26T15:26:13;2;2;
36453;PMS5003;22478;51.740;-1.314;2023-06-26T15:28:40;2;2;
36453;PMS5003;22478;51.740;-1.314;2023-06-26T15:31:07;3;1;
36453;PMS5003;22478;51.740;-1.314;2023-06-26T15:33:34;2;2;
36453;PMS5003;22478;51.740;-1.314;2023-06-26T15:36:02;2;2;
36453;PMS5003;22478;51.740;-1.314;2023-06-26T15:38:29;1;1;
36453;PMS5003;22478;51.740;-1.314;2023-06-26T15:40:56;3;3;
36453;PMS5003;22478;51.740;-1.314;2023-06-26T15:43:23;4;2;
36453;PMS5003;22478;51.740;-1.314;2023-06-26T15:45:50;2;2;
36453;PMS5003;22478;51.740;-1.314;2023-06-26T15:48:17;2;2;
36453;PMS5003;22478;51.740;-1.314;2023-06-26T15:50:45;3;3;
36453;PMS5003;22478;51.740;-1.314;2023-06-26T15:53:15;3;2;
36453;PMS5003;22478;51.740;-1.314;2023-06-26T15:55:43;2;2;
36453;PMS5003;22478;51.740;-1.314;2023-06-26T15:58:10;2;2;
36453;PMS5003;22478;51.740;-1.314;2023-06-26T16:00:37;3;1;
36453;PMS5003;22478;51.740;-1.314;2023-06-26T16:03:03;3;3;
36453;PMS5003;22478;51.740;-1.314;2023-06-26T16:05:30;1;1;
36453;PMS5003;22478;51.740;-1.314;2023-06-26T16:07:57;2;2;
36453;PMS5003;22478;51.740;-1.314;2023-06-26T16:10:24;0;0;
36453;PMS5003;22478;51.740;-1.314;2023-06-26T16:12:51;2;1;
36453;PMS5003;22478;51.740;-1.314;2023-06-26T16:15:18;2;2;
36453;PMS5003;22478;51.740;-1.314;2023-06-26T16:17:46;2;2;
36453;PMS5003;22478;51.740;-1.314;2023-06-26T16:20:12;4;2;
36453;PMS5003;22478;51.740;-1.314;2023-06-26T16:22:39;1;1;
36453;PMS5003;22478;51.740;-1.314;2023-06-26T16:25:07;1;1;
36453;PMS5003;22478;51.740;-1.314;2023-06-26T16:27:34;2;2;
36453;PMS5003;22478;51.740;-1.314;2023-06-26T16:30:01;2;2;
36453;PMS5003;22478;51.740;-1.314;2023-06-26T16:32:29;2;2;
36453;PMS5003;22478;51.740;-1.314;2023-06-26T16:34:56;2;2;